createdAt,value
2022-10-23T00:01:46.989Z,87974.63
2022-10-23T00:04:19.335Z,87973.88
2022-10-23T00:06:47.833Z,87975.81
2022-10-23T00:09:23.889Z,87982.19
2022-10-23T00:11:52.304Z,87981.06
2022-10-23T00:14:24.460Z,87987.06
2022-10-23T00:16:51.900Z,87988.56
2022-10-23T00:19:19.152Z,87984.00
2022-10-23T00:21:46.360Z,87989.69
2022-10-23T00:24:13.609Z,87985.88
2022-10-23T00:26:41.195Z,87980.59
2022-10-23T00:29:10.773Z,87989.28
2022-10-23T00:31:38.589Z,87988.91
2022-10-23T00:34:05.850Z,87990.06
2022-10-23T00:36:32.957Z,87991.53
2022-10-23T00:39:00.021Z,87990.38
2022-10-23T00:41:30.703Z,87991.47
2022-10-23T00:44:18.472Z,87994.84
2022-10-23T00:46:46.513Z,87994.44
2022-10-23T00:49:14.947Z,88001.59
2022-10-23T00:51:54.292Z,88007.22
2022-10-23T00:54:27.494Z,87995.94
2022-10-23T00:56:59.343Z,88000.78
2022-10-23T00:59:27.745Z,88006.06
2022-10-23T01:01:55.331Z,87994.75
2022-10-23T01:04:23.960Z,87991.38
2022-10-23T01:07:05.805Z,87977.78
2022-10-23T01:09:37.367Z,87981.50
2022-10-23T01:12:23.989Z,87999.56
2022-10-23T01:15:22.497Z,87991.22
2022-10-23T01:17:58.335Z,87988.19
2022-10-23T01:20:46.033Z,87980.25
2022-10-23T01:23:26.856Z,87987.44
2022-10-23T01:26:24.512Z,87986.63
2022-10-23T01:29:12.888Z,87991.88
2022-10-23T01:31:50.345Z,87984.34
2022-10-23T01:34:43.673Z,87990.38
2022-10-23T01:37:20.130Z,87985.88
2022-10-23T01:39:54.973Z,87988.50
2022-10-23T01:42:36.744Z,87989.22
2022-10-23T01:45:26.294Z,87992.22
2022-10-23T01:47:56.676Z,87994.88
2022-10-23T01:50:27.151Z,87999.00
2022-10-23T01:52:54.387Z,87995.22
2022-10-23T01:55:24.701Z,88005.81
2022-10-23T01:57:54.027Z,88012.91
2022-10-23T02:00:22.763Z,88004.25
2022-10-23T02:02:52.539Z,88019.31
2022-10-23T02:05:26.822Z,88009.88
2022-10-23T02:07:55.290Z,88011.34
2022-10-23T02:10:30.551Z,88015.88
2022-10-23T02:13:12.090Z,88013.56
2022-10-23T02:15:51.241Z,88012.06
2022-10-23T02:19:02.504Z,88010.94
2022-10-23T02:21:47.536Z,87996.56
2022-10-23T02:24:28.669Z,88004.88
2022-10-23T02:27:04.711Z,88000.34
2022-10-23T02:29:40.259Z,87996.19
2022-10-23T02:32:10.150Z,87997.66
2022-10-23T02:34:37.976Z,87986.38
2022-10-23T02:37:05.128Z,87987.47
2022-10-23T02:39:32.374Z,87988.63
2022-10-23T02:42:11.311Z,87980.25
2022-10-23T02:44:50.475Z,87975.75
2022-10-23T02:47:42.028Z,87972.72
2022-10-23T02:50:33.967Z,87965.94
2022-10-23T02:53:19.903Z,87974.91
2022-10-23T02:56:27.696Z,87972.59
2022-10-23T02:59:00.249Z,87973.34
2022-10-23T03:01:45.663Z,87967.72
2022-10-23T03:04:16.909Z,87969.94
2022-10-23T03:06:44.505Z,87966.19
2022-10-23T03:09:12.151Z,87965.44
2022-10-23T03:11:39.337Z,87971.06
2022-10-23T03:14:06.857Z,87959.75
2022-10-23T03:16:34.254Z,87975.56
2022-10-23T03:19:01.668Z,87979.72
2022-10-23T03:21:29.318Z,87977.47
2022-10-23T03:23:56.579Z,87980.81
2022-10-23T03:26:24.089Z,87987.94
2022-10-23T03:28:51.221Z,87984.53
2022-10-23T03:31:18.369Z,87980.81
2022-10-23T03:33:45.805Z,87977.63
2022-10-23T03:36:12.946Z,87976.13
2022-10-23T03:38:40.386Z,87981.81
2022-10-23T03:41:07.635Z,87970.44
2022-10-23T03:46:26.445Z,87963.63
2022-10-23T03:48:53.556Z,87967.72
2022-10-23T03:51:20.680Z,87977.91
2022-10-23T03:53:47.910Z,87974.53
2022-10-23T03:56:15.047Z,87980.97
2022-10-23T03:58:42.130Z,87979.78
2022-10-23T04:01:09.894Z,87977.44
2022-10-23T04:03:37.132Z,87978.97
2022-10-23T04:06:04.537Z,87973.25
2022-10-23T04:08:31.788Z,87974.78
2022-10-23T04:10:58.984Z,87973.53
2022-10-23T04:13:26.153Z,87978.06
2022-10-23T04:15:54.372Z,87982.88
2022-10-23T04:18:21.506Z,87978.66
2022-10-23T04:20:49.161Z,87982.47
2022-10-23T04:23:17.096Z,87992.97
2022-10-23T04:25:44.551Z,87988.03
2022-10-23T04:28:12.126Z,87984.63
2022-10-23T04:30:39.566Z,87972.19
2022-10-23T04:33:06.833Z,87979.31
2022-10-23T04:35:34.304Z,87973.69
2022-10-23T04:38:01.484Z,87973.28
2022-10-23T04:40:28.636Z,87980.09
2022-10-23T04:42:55.785Z,87994.72
2022-10-23T04:45:22.976Z,87990.91
2022-10-23T04:47:50.156Z,87983.00
2022-10-23T04:50:17.437Z,87987.09
2022-10-23T04:52:44.824Z,87981.34
2022-10-23T04:55:12.558Z,87980.63
2022-10-23T04:57:39.901Z,87976.06
2022-10-23T05:00:12.427Z,87975.28
2022-10-23T05:02:39.773Z,87971.56
2022-10-23T05:05:08.385Z,87975.22
2022-10-23T05:07:37.447Z,87971.41
2022-10-23T05:10:05.898Z,87982.34
2022-10-23T05:12:33.156Z,87979.59
2022-10-23T05:15:00.287Z,87974.31
2022-10-23T05:17:36.437Z,87975.09
2022-10-23T05:20:11.684Z,87970.53
2022-10-23T05:22:42.582Z,87957.31
2022-10-23T05:25:10.710Z,87965.97
2022-10-23T05:27:37.917Z,87962.91
2022-10-23T05:30:06.732Z,87953.16
2022-10-23T05:32:35.572Z,87964.72
2022-10-23T05:35:14.207Z,87963.50
2022-10-23T05:37:45.222Z,87965.75
2022-10-23T05:40:13.361Z,87972.06
2022-10-23T05:42:41.721Z,87982.16
2022-10-23T05:45:09.825Z,87986.59
2022-10-23T05:47:37.225Z,87989.53
2022-10-23T05:50:04.793Z,87987.63
2022-10-23T05:52:31.920Z,87987.31
2022-10-23T05:54:59.030Z,87984.31
2022-10-23T05:57:26.150Z,87980.59
2022-10-23T05:59:53.305Z,87984.69
2022-10-23T06:02:20.603Z,87989.22
2022-10-23T06:04:47.760Z,87995.63
2022-10-23T06:07:14.989Z,87981.69
2022-10-23T06:09:42.314Z,87988.00
2022-10-23T06:12:09.461Z,87985.38
2022-10-23T06:14:36.654Z,87988.28
2022-10-23T06:17:03.803Z,87987.19
2022-10-23T06:19:31.152Z,87973.75
2022-10-23T06:21:58.248Z,87985.09
2022-10-23T06:24:25.542Z,87981.69
2022-10-23T06:26:52.811Z,87983.09
2022-10-23T06:29:20.090Z,87991.41
2022-10-23T06:31:47.243Z,87988.69
2022-10-23T06:34:15.092Z,87993.63
2022-10-23T06:36:42.590Z,87992.50
2022-10-23T06:39:09.912Z,87989.44
2022-10-23T06:41:37.104Z,87999.66
2022-10-23T06:44:04.260Z,87990.91
2022-10-23T06:46:31.466Z,87992.09
2022-10-23T06:48:58.680Z,88008.63
2022-10-23T06:51:25.828Z,88010.63
2022-10-23T06:53:53.410Z,88019.03
2022-10-23T06:56:20.488Z,88013.03
2022-10-23T06:58:47.604Z,88019.47
2022-10-23T07:01:15.694Z,88016.94
2022-10-23T07:03:43.127Z,88028.63
2022-10-23T07:06:11.501Z,88018.16
2022-10-23T07:08:39.039Z,88020.50
2022-10-23T07:11:10.524Z,88025.81
2022-10-23T07:13:39.617Z,88018.41
2022-10-23T07:16:15.579Z,88033.59
2022-10-23T07:18:44.508Z,88029.91
2022-10-23T07:21:11.767Z,88037.84
2022-10-23T07:23:39.342Z,88029.25
2022-10-23T07:26:07.865Z,88020.66
2022-10-23T07:28:35.944Z,88016.56
2022-10-23T07:31:03.856Z,88011.41
2022-10-23T07:33:31.091Z,88022.00
2022-10-23T07:35:58.294Z,88011.50
2022-10-23T07:38:25.993Z,88011.19
2022-10-23T07:40:53.421Z,88007.56
2022-10-23T07:43:20.989Z,88011.41
2022-10-23T07:45:50.166Z,88011.47
2022-10-23T07:48:18.100Z,88009.25
2022-10-23T07:50:45.258Z,88030.41
2022-10-23T07:53:22.584Z,88024.44
2022-10-23T07:56:10.345Z,88013.59
2022-10-23T07:58:38.029Z,88020.09
2022-10-23T08:01:18.618Z,88010.78
2022-10-23T08:03:46.224Z,88007.09
2022-10-23T08:06:13.464Z,88005.25
2022-10-23T08:08:40.675Z,88014.41
2022-10-23T08:11:08.041Z,88009.56
2022-10-23T08:13:35.193Z,88003.59
2022-10-23T08:16:02.394Z,88001.06
2022-10-23T08:18:29.558Z,87997.41
2022-10-23T08:21:02.681Z,87990.19
2022-10-23T08:23:30.753Z,87989.50
2022-10-23T08:26:01.547Z,87991.13
2022-10-23T08:28:29.551Z,87988.22
2022-10-23T08:30:56.835Z,87984.59
2022-10-23T08:33:25.283Z,87994.81
2022-10-23T08:35:52.482Z,87994.88
2022-10-23T08:38:19.692Z,87988.53
2022-10-23T08:40:49.181Z,87999.91
2022-10-23T08:43:47.535Z,88014.69
2022-10-23T08:46:24.234Z,88014.75
2022-10-23T08:49:17.807Z,88012.53
2022-10-23T08:51:54.357Z,88019.41
2022-10-23T08:55:05.639Z,88002.09
2022-10-23T08:57:43.665Z,88001.44
2022-10-23T09:00:17.935Z,87994.75
2022-10-23T09:02:53.444Z,87986.09
2022-10-23T09:06:13.594Z,87978.22
2022-10-23T09:08:59.487Z,87983.56
2022-10-23T09:12:02.000Z,87983.66
2022-10-23T09:15:02.451Z,87983.69
2022-10-23T09:17:40.280Z,88009.84
2022-10-23T09:20:37.097Z,88014.84
2022-10-23T09:23:21.100Z,88011.53
2022-10-23T09:25:51.590Z,87999.44
2022-10-23T09:28:46.009Z,87990.00
2022-10-23T09:31:14.584Z,87991.19
2022-10-23T09:33:53.274Z,87998.75
2022-10-23T09:36:22.880Z,87990.47
2022-10-23T09:38:53.421Z,87994.25
2022-10-23T09:41:39.328Z,88009.03
2022-10-23T09:44:18.465Z,88001.47
2022-10-23T09:46:52.512Z,88005.66
2022-10-23T09:49:28.608Z,88008.34
2022-10-23T09:52:10.795Z,88008.72
2022-10-23T09:55:00.641Z,88002.72
2022-10-23T09:57:43.983Z,87997.44
2022-10-23T10:00:14.542Z,87987.59
2022-10-23T10:02:54.647Z,87982.31
2022-10-23T10:05:28.006Z,87989.53
2022-10-23T10:08:02.020Z,87981.22
2022-10-23T10:10:40.922Z,87971.38
2022-10-23T10:13:37.645Z,87965.34
2022-10-23T10:16:26.530Z,87954.75
2022-10-23T10:19:16.297Z,87951.34
2022-10-23T10:22:02.560Z,87963.13
2022-10-23T10:24:41.824Z,87959.34
2022-10-23T10:27:33.925Z,87969.94
2022-10-23T10:30:23.870Z,87978.28
2022-10-23T10:33:14.886Z,87966.16
2022-10-23T10:35:49.185Z,87977.91
2022-10-23T10:38:41.672Z,87982.09
2022-10-23T10:41:55.161Z,87982.47
2022-10-23T10:44:39.012Z,87980.59
2022-10-23T10:47:46.789Z,87980.94
2022-10-23T10:50:28.438Z,87976.41
2022-10-23T10:53:34.799Z,87971.47
2022-10-23T10:56:07.009Z,87967.28
2022-10-23T10:58:42.085Z,87965.38
2022-10-23T11:01:57.011Z,87964.94
2022-10-23T11:04:53.656Z,87961.91
2022-10-23T11:07:29.506Z,87964.84
2022-10-23T11:10:04.277Z,87946.03
2022-10-23T11:12:34.284Z,87928.91
2022-10-23T11:15:04.026Z,87927.13
2022-10-23T11:17:45.036Z,87928.19
2022-10-23T11:20:34.041Z,87934.63
2022-10-23T11:23:26.005Z,87931.13
2022-10-23T11:26:40.005Z,87924.38
2022-10-23T11:30:12.194Z,87922.88
2022-10-23T11:33:06.114Z,87918.50
2022-10-23T11:35:54.370Z,87924.88
2022-10-23T11:38:38.264Z,87907.84
2022-10-23T11:41:27.579Z,87902.81
2022-10-23T11:44:00.986Z,87918.13
2022-10-23T11:46:38.197Z,87905.53
2022-10-23T11:49:20.953Z,87909.44
2022-10-23T11:51:59.349Z,87908.28
2022-10-23T11:54:26.593Z,87915.06
2022-10-23T11:57:17.676Z,87917.69
2022-10-23T11:59:48.012Z,87899.78
2022-10-23T12:02:39.563Z,87902.44
2022-10-23T12:05:37.728Z,87897.19
2022-10-23T12:08:20.166Z,87897.22
2022-10-23T12:10:49.605Z,87902.75
2022-10-23T12:13:44.815Z,87889.03
2022-10-23T12:16:13.248Z,87885.31
2022-10-23T12:18:53.463Z,87899.16
2022-10-23T12:21:24.792Z,87894.19
2022-10-23T12:24:22.230Z,87892.50
2022-10-23T12:27:25.808Z,87886.31
2022-10-23T12:29:55.610Z,87890.22
2022-10-23T12:33:01.026Z,87886.13
2022-10-23T12:36:16.869Z,87883.47
2022-10-23T12:38:48.900Z,87882.47
2022-10-23T12:41:30.838Z,87881.91
2022-10-23T12:44:02.935Z,87878.81
2022-10-23T12:46:42.021Z,87877.19
2022-10-23T12:49:23.760Z,87887.31
2022-10-23T12:52:06.793Z,87881.16
2022-10-23T12:54:40.681Z,87882.97
2022-10-23T12:57:44.563Z,87890.44
2022-10-23T13:00:19.578Z,87880.66
2022-10-23T13:02:47.386Z,87878.44
2022-10-23T13:05:21.434Z,87881.53
2022-10-23T13:07:50.969Z,87872.47
2022-10-23T13:10:21.632Z,87870.16
2022-10-23T13:13:07.258Z,87859.00
2022-10-23T13:15:43.854Z,87846.78
2022-10-23T13:18:14.054Z,87849.91
2022-10-23T13:20:58.997Z,87848.03
2022-10-23T13:23:35.247Z,87850.38
2022-10-23T13:26:32.057Z,87854.19
2022-10-23T13:29:17.820Z,87857.66
2022-10-23T13:31:45.125Z,87855.44
2022-10-23T13:34:24.002Z,87860.75
2022-10-23T13:37:06.805Z,87854.66
2022-10-23T13:39:34.590Z,87853.56
2022-10-23T13:42:15.362Z,87846.34
2022-10-23T13:44:43.108Z,87842.63
2022-10-23T13:47:15.920Z,87849.53
2022-10-23T13:49:43.293Z,87848.00
2022-10-23T13:52:18.085Z,87840.03
2022-10-23T13:54:45.634Z,87845.75
2022-10-23T13:57:15.823Z,87849.59
2022-10-23T13:59:43.266Z,87852.69
2022-10-23T14:02:23.452Z,87856.53
2022-10-23T14:04:51.467Z,87852.75
2022-10-23T14:07:18.874Z,87852.81
2022-10-23T14:09:46.232Z,87847.16
2022-10-23T14:12:13.795Z,87852.88
2022-10-23T14:14:41.063Z,87843.81
2022-10-23T14:17:08.382Z,87851.81
2022-10-23T14:22:07.689Z,87849.94
2022-10-23T14:24:36.004Z,87848.84
2022-10-23T14:27:03.331Z,87854.53
2022-10-23T14:29:30.540Z,87859.91
2022-10-23T14:31:57.751Z,87851.50
2022-10-23T14:34:24.888Z,87846.25
2022-10-23T14:37:07.813Z,87847.78
2022-10-23T14:39:36.024Z,87852.75
2022-10-23T14:42:03.217Z,87850.81
2022-10-23T14:44:30.354Z,87851.19
2022-10-23T14:46:57.588Z,87857.69
2022-10-23T14:49:24.703Z,87857.72
2022-10-23T14:51:51.859Z,87859.63
2022-10-23T14:54:19.298Z,87871.03
2022-10-23T14:56:46.531Z,87872.97
2022-10-23T14:59:13.881Z,87879.44
2022-10-23T15:01:48.262Z,87872.97
2022-10-23T15:04:16.221Z,87859.75
2022-10-23T15:06:44.364Z,87863.97
2022-10-23T15:09:11.718Z,87863.19
2022-10-23T15:11:39.219Z,87864.34
2022-10-23T15:14:07.399Z,87862.84
2022-10-23T15:16:34.742Z,87869.34
2022-10-23T15:19:01.984Z,87870.13
2022-10-23T15:21:29.204Z,87865.94
2022-10-23T15:23:56.419Z,87871.66
2022-10-23T15:26:23.600Z,87880.03
2022-10-23T15:28:57.776Z,87862.59
2022-10-23T15:31:37.040Z,87863.00
2022-10-23T15:34:06.092Z,87873.28
2022-10-23T15:36:34.194Z,87879.34
2022-10-23T15:39:01.659Z,87881.28
2022-10-23T15:41:34.366Z,87879.78
2022-10-23T15:44:03.936Z,87890.81
2022-10-23T15:46:32.079Z,87895.03
2022-10-23T15:48:59.325Z,87905.69
2022-10-23T15:51:27.157Z,87900.38
2022-10-23T15:53:54.533Z,87899.25
2022-10-23T15:56:22.048Z,87900.75
2022-10-23T15:58:49.392Z,87900.75
2022-10-23T16:01:16.709Z,87895.06
2022-10-23T16:03:44.369Z,87904.56
2022-10-23T16:06:14.709Z,87898.13
2022-10-23T16:08:42.235Z,87896.63
2022-10-23T16:11:30.057Z,87897.41
2022-10-23T16:13:59.780Z,87887.16
2022-10-23T16:16:28.691Z,87886.38
2022-10-23T16:18:58.249Z,87885.66
2022-10-23T16:21:29.627Z,87892.47
2022-10-23T16:24:00.366Z,87895.91
2022-10-23T16:26:30.434Z,87895.19
2022-10-23T16:29:01.944Z,87901.25
2022-10-23T16:31:29.949Z,87894.44
2022-10-23T16:34:00.402Z,87889.16
2022-10-23T16:36:28.879Z,87894.47
2022-10-23T16:38:56.456Z,87899.38
2022-10-23T16:41:23.832Z,87900.13
2022-10-23T16:43:51.662Z,87908.50
2022-10-23T16:46:21.833Z,87919.84
2022-10-23T16:48:52.940Z,87926.69
2022-10-23T16:51:27.091Z,87922.16
2022-10-23T16:53:55.487Z,87936.19
2022-10-23T16:56:26.409Z,87936.19
2022-10-23T17:01:28.970Z,87933.50
2022-10-23T17:03:57.341Z,87947.56
2022-10-23T17:06:31.507Z,87939.97
2022-10-23T17:09:01.354Z,87940.72
2022-10-23T17:11:32.505Z,87944.53
2022-10-23T17:14:18.565Z,87940.34
2022-10-23T17:16:50.364Z,87939.22
2022-10-23T17:22:09.091Z,87939.63
2022-10-23T17:24:38.201Z,87939.63
2022-10-23T17:27:06.095Z,87936.59
2022-10-23T17:29:33.719Z,87936.59
2022-10-23T17:32:01.193Z,87935.06
2022-10-23T17:34:28.367Z,87954.00
2022-10-23T17:36:56.514Z,87949.84
2022-10-23T17:39:29.700Z,87947.97
2022-10-23T17:41:57.211Z,87949.47
2022-10-23T17:44:24.503Z,87945.69
2022-10-23T17:46:54.773Z,87948.72
2022-10-23T17:49:23.412Z,87952.16
2022-10-23T17:51:54.296Z,87955.56
2022-10-23T17:54:22.416Z,87955.56
2022-10-23T17:56:49.758Z,87958.59
2022-10-23T17:59:18.465Z,87963.91
2022-10-23T18:01:46.744Z,87970.72
2022-10-23T18:04:15.673Z,87958.97
2022-10-23T18:06:48.966Z,87967.69
2022-10-23T18:09:16.729Z,87966.19
2022-10-23T18:11:48.225Z,87973.72
2022-10-23T18:14:19.521Z,87965.78
2022-10-23T18:16:47.358Z,87964.28
2022-10-23T18:19:17.151Z,87972.63
2022-10-23T18:21:44.356Z,87960.88
2022-10-23T18:24:11.784Z,87955.91
2022-10-23T18:26:41.887Z,87958.97
2022-10-23T18:29:11.700Z,87960.47
2022-10-23T18:31:39.930Z,87949.09
2022-10-23T18:34:14.566Z,87943.03
2022-10-23T18:36:42.336Z,87944.94
2022-10-23T18:39:14.191Z,87940.38
2022-10-23T18:41:43.584Z,87940.78
2022-10-23T18:44:15.595Z,87935.47
2022-10-23T18:46:43.784Z,87934.31
2022-10-23T18:49:11.748Z,87933.94
2022-10-23T18:51:39.157Z,87926.72
2022-10-23T18:54:12.729Z,87915.75
2022-10-23T18:56:40.776Z,87921.03
2022-10-23T18:59:13.645Z,87922.56
2022-10-23T19:01:41.904Z,87917.63
2022-10-23T19:04:09.552Z,87915.38
2022-10-23T19:06:37.021Z,87920.66
2022-10-23T19:09:08.951Z,87920.66
2022-10-23T19:11:36.578Z,87919.53
2022-10-23T19:14:04.689Z,87909.31
2022-10-23T19:16:40.877Z,87916.47
2022-10-23T19:19:22.421Z,87915.34
2022-10-23T19:21:50.732Z,87921.78
2022-10-23T19:24:36.089Z,87912.28
2022-10-23T19:27:04.266Z,87909.66
2022-10-23T19:29:32.447Z,87916.84
2022-10-23T19:32:00.159Z,87922.16
2022-10-23T19:34:27.875Z,87928.56
2022-10-23T19:36:55.448Z,87924.78
2022-10-23T19:39:23.362Z,87922.88
2022-10-23T19:41:50.504Z,87925.53
2022-10-23T19:44:18.695Z,87931.19
2022-10-23T19:46:46.996Z,87939.91
2022-10-23T19:49:14.280Z,87939.53
2022-10-23T19:51:50.672Z,87938.75
2022-10-23T19:54:21.220Z,87938.75
2022-10-23T19:56:49.748Z,87936.88
2022-10-23T19:59:17.814Z,87938.75
2022-10-23T20:01:48.115Z,87938.38
2022-10-23T20:04:19.962Z,87944.81
2022-10-23T20:06:47.744Z,87950.47
2022-10-23T20:09:14.938Z,87941.03
2022-10-23T20:11:42.716Z,87945.19
2022-10-23T20:14:10.404Z,87945.19
2022-10-23T20:16:39.408Z,87948.97
2022-10-23T20:19:11.517Z,87939.88
2022-10-23T20:21:42.268Z,87948.19
2022-10-23T20:24:11.941Z,87947.84
2022-10-23T20:26:46.870Z,87957.66
2022-10-23T20:29:15.171Z,87965.63
2022-10-23T20:31:43.610Z,87960.69
2022-10-23T20:34:12.017Z,87968.25
2022-10-23T20:36:46.609Z,87965.22
2022-10-23T20:39:23.731Z,87972.41
2022-10-23T20:41:51.809Z,87970.16
2022-10-23T20:44:19.568Z,87971.66
2022-10-23T20:46:47.895Z,87973.91
2022-10-23T20:49:16.748Z,87979.59
2022-10-23T20:51:44.509Z,87974.28
2022-10-23T20:54:11.918Z,87981.13
2022-10-23T20:56:40.023Z,87982.28
2022-10-23T20:59:13.759Z,87980.00
2022-10-23T21:01:47.514Z,87967.53
2022-10-23T21:04:16.230Z,87966.75
2022-10-23T21:06:57.685Z,87970.19
2022-10-23T21:09:31.347Z,87966.41
2022-10-23T21:11:58.606Z,87959.59
2022-10-23T21:14:25.738Z,87960.38
2022-10-23T21:16:52.951Z,87954.69
2022-10-23T21:19:20.148Z,87951.66
2022-10-23T21:21:47.288Z,87953.94
2022-10-23T21:24:17.208Z,87957.72
2022-10-23T21:26:45.597Z,87963.03
2022-10-23T21:29:18.414Z,87960.75
2022-10-23T21:32:00.388Z,87949.78
2022-10-23T21:34:30.223Z,87947.50
2022-10-23T21:37:12.510Z,87953.19
2022-10-23T21:39:44.284Z,87947.88
2022-10-23T21:42:14.152Z,87956.59
2022-10-23T21:44:41.463Z,87953.56
2022-10-23T21:47:08.799Z,87952.03
2022-10-23T21:49:36.136Z,87958.09
2022-10-23T21:52:05.017Z,87955.84
2022-10-23T21:54:32.749Z,87955.47
2022-10-23T21:56:59.988Z,87952.03
2022-10-23T21:59:30.197Z,87952.44
2022-10-23T22:01:59.459Z,87947.13
2022-10-23T22:04:26.772Z,87947.13
2022-10-23T22:06:54.039Z,87941.06
2022-10-23T22:09:22.070Z,87947.16
2022-10-23T22:11:52.212Z,87941.84
2022-10-23T22:14:19.795Z,87946.78
2022-10-23T22:16:47.803Z,87928.22
2022-10-23T22:19:18.068Z,87938.06
2022-10-23T22:21:46.470Z,87929.75
2022-10-23T22:24:13.996Z,87938.44
2022-10-23T22:26:48.834Z,87928.25
2022-10-23T22:29:20.991Z,87933.16
2022-10-23T22:31:50.021Z,87916.88
2022-10-23T22:34:48.346Z,87921.81
2022-10-23T22:37:15.022Z,87930.13
2022-10-23T22:39:42.526Z,87919.91
2022-10-23T22:42:09.658Z,87919.13
2022-10-23T22:44:36.904Z,87920.66
2022-10-23T22:47:04.260Z,87914.63
2022-10-23T22:49:31.378Z,87914.22
2022-10-23T22:51:58.618Z,87917.63
2022-10-23T22:54:25.837Z,87911.56
2022-10-23T22:56:53.168Z,87915.75
2022-10-23T22:59:20.327Z,87900.19
2022-10-23T23:01:48.474Z,87904.34
2022-10-23T23:04:36.823Z,87899.84
2022-10-23T23:07:03.869Z,87908.13
2022-10-23T23:09:31.112Z,87916.09
2022-10-23T23:11:58.511Z,87911.19
2022-10-23T23:14:25.761Z,87909.66
2022-10-23T23:16:53.669Z,87911.16
2022-10-23T23:19:20.910Z,87894.50
2022-10-23T23:21:48.120Z,87898.28
2022-10-23T23:24:15.461Z,87894.88
2022-10-23T23:26:42.732Z,87897.13
2022-10-23T23:29:09.964Z,87889.56
2022-10-23T23:31:37.124Z,87888.06
2022-10-23T23:34:04.409Z,87876.34
2022-10-23T23:36:31.778Z,87891.84
2022-10-23T23:38:59.839Z,87895.25
2022-10-23T23:41:28.552Z,87890.72
2022-10-23T23:43:58.428Z,87880.13
2022-10-23T23:46:26.090Z,87877.47
2022-10-23T23:48:53.292Z,87870.25
2022-10-23T23:51:24.636Z,87875.56
2022-10-23T23:53:52.847Z,87875.56
2022-10-23T23:56:20.843Z,87871.78
2022-10-23T23:58:48.111Z,87860.81
